TUI106 EDDL-EDDS
Flight info
| Callsign | TUI106 |
|---|---|
| Flight time | N/A |
| Altitude | 29000 |
| Route | KUMIK5Z KUMIK L603 BOMBI N850 KRH T128 BADSO BADSO2A |
| Aircraft | B738/M-SDE2E3FGHIRWXY/LB1 |
Departure
| Time | N/A |
|---|---|
| Airport | Düsseldorf Airport (EDDL) |
Arrival
| Time | 2026-05-05 16:32 |
|---|---|
| Airport | Stuttgart Airport (EDDS) |
| Time | Latitude | Longitude | Altitude | Speed | Heading |
|---|---|---|---|---|---|
| 2026-05-05 15:54 | 51.27747 | 7.45767 | 13608 ft | 368 kts | 131° |
| 2026-05-05 15:54 | 51.26085 | 7.48891 | 14326 ft | 369 kts | 131° |
| 2026-05-05 15:54 | 51.24426 | 7.52017 | 15049 ft | 370 kts | 131° |
| 2026-05-05 15:55 | 51.22791 | 7.55127 | 15781 ft | 370 kts | 131° |
| 2026-05-05 15:55 | 51.21147 | 7.58283 | 16540 ft | 370 kts | 131° |
| 2026-05-05 15:55 | 51.19504 | 7.61447 | 17316 ft | 370 kts | 131° |
| 2026-05-05 15:55 | 51.17865 | 7.64602 | 18089 ft | 369 kts | 131° |
| 2026-05-05 15:56 | 51.16203 | 7.67714 | 18794 ft | 367 kts | 136° |
| 2026-05-05 15:56 | 51.14280 | 7.70353 | 19514 ft | 364 kts | 143° |
| 2026-05-05 15:56 | 51.12268 | 7.72772 | 20247 ft | 361 kts | 145° |
| 2026-05-05 15:56 | 51.10254 | 7.75144 | 20997 ft | 359 kts | 145° |
| 2026-05-05 15:57 | 51.08258 | 7.77508 | 21759 ft | 356 kts | 145° |
| 2026-05-05 15:57 | 51.06289 | 7.79864 | 22533 ft | 353 kts | 144° |
| 2026-05-05 15:57 | 51.04347 | 7.82212 | 23328 ft | 349 kts | 144° |
| 2026-05-05 15:57 | 51.02403 | 7.84573 | 23762 ft | 354 kts | 144° |
| 2026-05-05 15:58 | 51.00443 | 7.86958 | 24221 ft | 356 kts | 144° |
| 2026-05-05 15:58 | 50.98471 | 7.89362 | 24686 ft | 359 kts | 144° |
| 2026-05-05 15:58 | 50.96484 | 7.91781 | 25148 ft | 361 kts | 144° |
| 2026-05-05 15:58 | 50.94487 | 7.94212 | 25618 ft | 363 kts | 144° |
| 2026-05-05 15:59 | 50.92483 | 7.96650 | 26094 ft | 364 kts | 144° |
| 2026-05-05 15:59 | 50.90471 | 7.99094 | 26577 ft | 365 kts | 144° |
| 2026-05-05 15:59 | 50.88455 | 8.01541 | 27047 ft | 366 kts | 145° |
| 2026-05-05 15:59 | 50.86434 | 8.03989 | 27545 ft | 366 kts | 145° |
| 2026-05-05 16:00 | 50.84415 | 8.06443 | 28079 ft | 367 kts | 144° |
| 2026-05-05 16:00 | 50.82641 | 8.09374 | 28565 ft | 375 kts | 127° |
| 2026-05-05 16:00 | 50.81239 | 8.12893 | 28834 ft | 385 kts | 125° |
| 2026-05-05 16:00 | 50.79778 | 8.16528 | 28832 ft | 396 kts | 126° |
| 2026-05-05 16:01 | 50.78247 | 8.20205 | 28825 ft | 405 kts | 127° |
| 2026-05-05 16:01 | 50.75041 | 8.27772 | 28845 ft | 424 kts | 127° |
| 2026-05-05 16:02 | 50.71668 | 8.35671 | 28832 ft | 441 kts | 129° |
| 2026-05-05 16:02 | 50.67318 | 8.42514 | 28790 ft | 446 kts | 147° |
| 2026-05-05 16:03 | 50.61908 | 8.47362 | 28796 ft | 449 kts | 155° |
| 2026-05-05 16:03 | 50.56406 | 8.51889 | 28792 ft | 449 kts | 154° |
| 2026-05-05 16:04 | 50.50906 | 8.56506 | 28790 ft | 447 kts | 153° |
| 2026-05-05 16:04 | 50.45426 | 8.61102 | 28800 ft | 445 kts | 155° |
| 2026-05-05 16:05 | 50.39623 | 8.64325 | 28800 ft | 442 kts | 165° |
| 2026-05-05 16:05 | 50.33716 | 8.66990 | 28801 ft | 441 kts | 165° |
| 2026-05-05 16:06 | 50.27834 | 8.69705 | 28808 ft | 441 kts | 164° |
| 2026-05-05 16:06 | 50.21966 | 8.72443 | 28819 ft | 440 kts | 164° |
| 2026-05-05 16:07 | 50.16102 | 8.75176 | 28818 ft | 440 kts | 164° |
| 2026-05-05 16:07 | 50.10242 | 8.77889 | 28826 ft | 439 kts | 165° |
| 2026-05-05 16:08 | 50.04178 | 8.78955 | 28836 ft | 440 kts | 180° |
| 2026-05-05 16:08 | 49.98114 | 8.77519 | 28836 ft | 443 kts | 191° |
| 2026-05-05 16:09 | 49.92096 | 8.75345 | 28825 ft | 445 kts | 191° |
| 2026-05-05 16:09 | 49.86059 | 8.73228 | 28836 ft | 445 kts | 191° |
| 2026-05-05 16:10 | 49.79994 | 8.71150 | 28826 ft | 447 kts | 191° |
| 2026-05-05 16:10 | 49.73957 | 8.69104 | 28829 ft | 447 kts | 189° |
| 2026-05-05 16:11 | 49.67783 | 8.68029 | 28828 ft | 447 kts | 183° |
| 2026-05-05 16:12 | 49.56367 | 8.66692 | 28824 ft | 449 kts | 183° |
| 2026-05-05 16:13 | 49.41036 | 8.64670 | 27465 ft | 433 kts | 184° |
| 2026-05-05 16:13 | 49.38037 | 8.64275 | 26690 ft | 432 kts | 184° |
| 2026-05-05 16:13 | 49.35044 | 8.63882 | 25939 ft | 432 kts | 184° |
| 2026-05-05 16:14 | 49.29075 | 8.63038 | 24482 ft | 430 kts | 185° |
| 2026-05-05 16:14 | 49.23143 | 8.62082 | 23040 ft | 427 kts | 186° |
| 2026-05-05 16:15 | 49.17248 | 8.61149 | 21448 ft | 424 kts | 186° |
| 2026-05-05 16:15 | 49.11396 | 8.60245 | 19940 ft | 421 kts | 186° |
| 2026-05-05 16:16 | 49.05597 | 8.59364 | 18534 ft | 418 kts | 186° |
| 2026-05-05 16:16 | 48.99816 | 8.58497 | 16985 ft | 416 kts | 185° |
| 2026-05-05 16:17 | 48.94083 | 8.58951 | 15827 ft | 407 kts | 176° |
| 2026-05-05 16:17 | 48.91330 | 8.59395 | 15335 ft | 400 kts | 173° |
| 2026-05-05 16:18 | 48.86070 | 8.62004 | 14419 ft | 389 kts | 164° |
| 2026-05-05 16:18 | 48.83537 | 8.63243 | 13882 ft | 387 kts | 165° |
| 2026-05-05 16:18 | 48.78430 | 8.65754 | 12567 ft | 385 kts | 161° |
| 2026-05-05 16:19 | 48.76135 | 8.67859 | 11910 ft | 390 kts | 141° |
| 2026-05-05 16:19 | 48.74432 | 8.71050 | 11367 ft | 391 kts | 121° |
| 2026-05-05 16:19 | 48.73573 | 8.79002 | 10864 ft | 391 kts | 83° |
| 2026-05-05 16:20 | 48.74664 | 8.87084 | 10835 ft | 389 kts | 79° |
| 2026-05-05 16:20 | 48.75772 | 8.94473 | 10824 ft | 394 kts | 78° |
| 2026-05-05 16:21 | 48.76993 | 9.02516 | 9931 ft | 377 kts | 78° |
| 2026-05-05 16:22 | 48.78699 | 9.13515 | 8578 ft | 339 kts | 78° |
| 2026-05-05 16:22 | 48.79754 | 9.20232 | 7847 ft | 317 kts | 78° |
| 2026-05-05 16:23 | 48.80753 | 9.26572 | 7148 ft | 301 kts | 78° |
| 2026-05-05 16:23 | 48.81237 | 9.29624 | 6785 ft | 295 kts | 78° |
| 2026-05-05 16:23 | 48.82189 | 9.35590 | 5917 ft | 290 kts | 78° |
| 2026-05-05 16:24 | 48.82659 | 9.38558 | 5462 ft | 288 kts | 78° |
| 2026-05-05 16:24 | 48.83119 | 9.41503 | 5031 ft | 286 kts | 78° |
| 2026-05-05 16:24 | 48.84004 | 9.47351 | 4133 ft | 281 kts | 78° |
| 2026-05-05 16:25 | 48.84400 | 9.50175 | 4022 ft | 264 kts | 84° |
| 2026-05-05 16:25 | 48.83259 | 9.54877 | 4023 ft | 236 kts | 146° |
| 2026-05-05 16:25 | 48.81829 | 9.55966 | 4019 ft | 229 kts | 162° |
| 2026-05-05 16:26 | 48.78823 | 9.57165 | 3992 ft | 213 kts | 169° |
| 2026-05-05 16:26 | 48.76105 | 9.56907 | 4002 ft | 200 kts | 225° |
| 2026-05-05 16:27 | 48.75471 | 9.55109 | 4023 ft | 198 kts | 252° |
| 2026-05-05 16:27 | 48.75006 | 9.53122 | 4009 ft | 201 kts | 249° |
| 2026-05-05 16:27 | 48.74546 | 9.51154 | 4003 ft | 196 kts | 250° |
| 2026-05-05 16:27 | 48.74133 | 9.49211 | 4007 ft | 193 kts | 251° |
| 2026-05-05 16:28 | 48.73743 | 9.47261 | 4017 ft | 195 kts | 252° |
| 2026-05-05 16:28 | 48.73368 | 9.45266 | 3944 ft | 199 kts | 253° |
| 2026-05-05 16:28 | 48.72988 | 9.43229 | 3716 ft | 201 kts | 253° |
| 2026-05-05 16:28 | 48.72605 | 9.41214 | 3457 ft | 197 kts | 253° |
| 2026-05-05 16:29 | 48.72229 | 9.39244 | 3207 ft | 189 kts | 253° |
| 2026-05-05 16:29 | 48.71876 | 9.37395 | 2948 ft | 177 kts | 253° |
| 2026-05-05 16:29 | 48.71548 | 9.35675 | 2727 ft | 165 kts | 253° |
| 2026-05-05 16:29 | 48.71240 | 9.34058 | 2523 ft | 154 kts | 254° |
| 2026-05-05 16:30 | 48.70940 | 9.32485 | 2321 ft | 158 kts | 255° |
| 2026-05-05 16:30 | 48.70638 | 9.30896 | 2090 ft | 158 kts | 254° |
| 2026-05-05 16:30 | 48.70331 | 9.29277 | 1876 ft | 162 kts | 254° |
| 2026-05-05 16:30 | 48.70017 | 9.27623 | 1656 ft | 165 kts | 255° |
| 2026-05-05 16:31 | 48.69701 | 9.25964 | 1440 ft | 162 kts | 254° |
| 2026-05-05 16:31 | 48.69395 | 9.24358 | 1242 ft | 155 kts | 256° |
| 2026-05-05 16:31 | 48.69125 | 9.22919 | 1218 ft | 117 kts | 254° |
| 2026-05-05 16:31 | 48.68958 | 9.22038 | 1241 ft | 67 kts | 254° |
| 2026-05-05 16:32 | 48.68845 | 9.21444 | 1262 ft | 45 kts | 254° |
| 2026-05-05 16:32 | 48.68827 | 9.21035 | 1261 ft | 35 kts | 281° |
| 2026-05-05 16:32 | 48.68855 | 9.20867 | 1271 ft | 10 kts | 284° |
| 2026-05-05 16:32 | 48.68864 | 9.20809 | 1271 ft | 0 kts | 284° |
| 2026-05-05 16:33 | 48.68871 | 9.20768 | 1272 ft | 8 kts | 283° |
| 2026-05-05 16:34 | 48.68872 | 9.20762 | 1272 ft | 2 kts | 283° |
| 2026-05-05 16:34 | 48.68878 | 9.20698 | 1274 ft | 8 kts | 265° |
| 2026-05-05 16:34 | 48.68865 | 9.20621 | 1276 ft | 8 kts | 254° |
| 2026-05-05 16:34 | 48.68851 | 9.20546 | 1278 ft | 7 kts | 253° |
| 2026-05-05 16:35 | 48.68837 | 9.20474 | 1279 ft | 7 kts | 253° |
| 2026-05-05 16:35 | 48.68822 | 9.20403 | 1281 ft | 8 kts | 253° |
| 2026-05-05 16:35 | 48.68801 | 9.20289 | 1286 ft | 12 kts | 255° |
| 2026-05-05 16:35 | 48.68779 | 9.20170 | 1286 ft | 12 kts | 254° |
| 2026-05-05 16:36 | 48.68757 | 9.20053 | 1289 ft | 11 kts | 259° |
| 2026-05-05 16:36 | 48.68791 | 9.19953 | 1294 ft | 11 kts | 316° |
| 2026-05-05 16:36 | 48.68852 | 9.19889 | 1299 ft | 11 kts | 343° |
| 2026-05-05 16:36 | 48.68901 | 9.19816 | 1304 ft | 10 kts | 309° |
| 2026-05-05 16:37 | 48.68957 | 9.19780 | 1308 ft | 6 kts | 345° |
| 2026-05-05 16:37 | 48.68962 | 9.19778 | 1309 ft | 0 kts | 345° |